Time;durP1;ratioP1;P1;durP2;ratioP2;P2;SDS_P1;SDS_P2;PMS_P1;PMS_P2;Temp;Humidity;BMP_temperature;BMP_pressure;BME280_temperature;BME280_humidity;BME280_pressure;Samples;Min_cycle;Max_cycle;Signal;HPM_P1;HPM_P2
2024/01/03 00:00:58;;;;;;;3.05;2.40;;;18.20;49.70;;;;;;5127783;27;45299;-65
2024/01/03 00:03:28;;;;;;;2.80;2.50;;;18.20;49.70;;;;;;5128147;27;45374;-65
2024/01/03 00:05:54;;;;;;;2.28;2.08;;;18.20;49.70;;;;;;5128083;27;46495;-65
2024/01/03 00:08:24;;;;;;;2.80;2.50;;;18.10;49.80;;;;;;5128163;27;45331;-65
2024/01/03 00:10:53;;;;;;;2.65;2.45;;;18.10;49.80;;;;;;5128478;27;45238;-64
2024/01/03 00:14:17;;;;;;;2.20;1.98;;;18.10;49.80;;;;;;5138208;27;45194;-65
2024/01/03 00:16:44;;;;;;;2.40;2.08;;;18.10;49.90;;;;;;5084401;28;46356;-65
2024/01/03 00:19:16;;;;;;;2.78;2.30;;;18.00;49.80;;;;;;5083881;28;45265;-65
2024/01/03 00:21:43;;;;;;;2.80;2.47;;;18.00;49.90;;;;;;5125401;27;45439;-65
2024/01/03 00:24:12;;;;;;;2.30;2.10;;;18.00;49.90;;;;;;5128523;27;45391;-67
2024/01/03 00:26:40;;;;;;;2.88;2.00;;;18.00;50.00;;;;;;5127756;27;45444;-65
2024/01/03 00:29:15;;;;;;;1.90;1.80;;;18.00;50.00;;;;;;5127810;27;45288;-66
2024/01/03 00:31:43;;;;;;;3.63;2.25;;;18.00;50.00;;;;;;5128119;27;45416;-65
2024/01/03 00:34:36;;;;;;;1.70;1.60;;;18.00;50.00;;;;;;5127988;27;45667;-67
2024/01/03 00:37:04;;;;;;;2.42;1.88;;;18.00;50.00;;;;;;5127685;27;46286;-65
2024/01/03 00:39:33;;;;;;;1.98;1.77;;;17.90;50.00;;;;;;5127641;27;45183;-65
2024/01/03 00:42:00;;;;;;;2.00;1.83;;;17.90;50.00;;;;;;5127879;27;45236;-65
2024/01/03 00:44:26;;;;;;;2.05;1.85;;;17.90;50.10;;;;;;5128112;27;45346;-66
2024/01/03 00:46:54;;;;;;;2.05;1.90;;;17.90;50.10;;;;;;5127366;27;46393;-66
2024/01/03 00:49:23;;;;;;;2.65;1.67;;;17.90;50.20;;;;;;5127609;27;45270;-66
2024/01/03 00:51:50;;;;;;;1.90;1.70;;;17.90;50.20;;;;;;5127631;27;45207;-66
2024/01/03 00:54:17;;;;;;;1.63;1.38;;;17.80;50.70;;;;;;5127774;27;45413;-66
2024/01/03 00:56:44;;;;;;;2.40;1.73;;;17.80;50.20;;;;;;5127044;27;45421;-65
2024/01/03 00:59:11;;;;;;;1.67;1.58;;;17.80;50.20;;;;;;5119237;27;45340;-65
2024/01/03 01:01:38;;;;;;;1.90;1.75;;;17.80;50.20;;;;;;5127511;27;45246;-66
2024/01/03 01:04:05;;;;;;;1.65;1.55;;;17.80;50.80;;;;;;5127741;27;45396;-66
2024/01/03 01:06:33;;;;;;;1.58;1.48;;;17.80;50.20;;;;;;5127053;27;46673;-66
2024/01/03 01:09:03;;;;;;;1.50;1.40;;;17.80;50.30;;;;;;5127155;27;45323;-66
2024/01/03 01:11:30;;;;;;;1.45;1.35;;;17.70;50.20;;;;;;5127531;27;45273;-66
2024/01/03 01:13:57;;;;;;;1.48;1.38;;;17.70;50.30;;;;;;5127405;27;45444;-66
2024/01/03 01:16:24;;;;;;;1.60;1.50;;;17.70;50.90;;;;;;5126285;27;45636;-64
2024/01/03 01:18:51;;;;;;;1.92;1.50;;;17.70;50.30;;;;;;5126819;27;45180;-65
2024/01/03 01:21:18;;;;;;;1.58;1.23;;;17.70;50.30;;;;;;5127117;27;45300;-65
2024/01/03 01:23:47;;;;;;;1.58;1.40;;;17.70;50.40;;;;;;5143802;27;45393;-65
2024/01/03 01:26:14;;;;;;;1.50;1.40;;;17.70;50.40;;;;;;5147660;27;47590;-66
2024/01/03 01:28:40;;;;;;;1.38;1.27;;;17.70;50.40;;;;;;5147629;27;45353;-65
2024/01/03 01:31:08;;;;;;;1.30;1.10;;;17.60;50.50;;;;;;5127660;27;45326;-66
2024/01/03 01:33:35;;;;;;;1.50;1.40;;;17.60;50.40;;;;;;5127188;27;45288;-66
2024/01/03 01:36:02;;;;;;;1.55;1.45;;;17.60;50.50;;;;;;5126712;27;47290;-65
2024/01/03 01:38:29;;;;;;;1.50;1.40;;;17.60;50.50;;;;;;5126955;27;46027;-66
2024/01/03 01:40:57;;;;;;;1.52;1.20;;;17.60;50.50;;;;;;5141261;27;45339;-66
2024/01/03 01:43:24;;;;;;;1.30;1.20;;;17.60;50.60;;;;;;5147987;27;45406;-65
2024/01/03 01:45:50;;;;;;;1.40;1.30;;;17.60;50.50;;;;;;5147394;27;45303;-65
2024/01/03 01:48:17;;;;;;;1.35;1.25;;;17.50;50.50;;;;;;5147656;27;45428;-65
2024/01/03 01:50:44;;;;;;;1.30;1.20;;;17.50;50.50;;;;;;5147527;27;45386;-65
2024/01/03 01:53:11;;;;;;;1.23;1.05;;;17.50;50.60;;;;;;5147992;27;45351;-65
2024/01/03 01:55:38;;;;;;;1.10;1.05;;;17.50;50.60;;;;;;5147557;27;47548;-66
2024/01/03 01:58:07;;;;;;;1.00;1.00;;;17.50;50.60;;;;;;5147314;27;45307;-65
2024/01/03 02:00:33;;;;;;;1.30;1.20;;;17.50;50.60;;;;;;5146863;27;45388;-65
2024/01/03 02:03:00;;;;;;;1.33;1.17;;;17.50;50.70;;;;;;5147475;27;45493;-65
2024/01/03 02:05:27;;;;;;;1.23;1.17;;;17.50;50.60;;;;;;5147292;27;46858;-66
2024/01/03 02:07:54;;;;;;;0.85;0.85;;;17.40;50.60;;;;;;5147377;27;45208;-66
2024/01/03 02:10:21;;;;;;;1.08;1.08;;;17.40;50.60;;;;;;5147301;27;45325;-66
2024/01/03 02:12:48;;;;;;;1.13;1.00;;;17.40;50.70;;;;;;5152677;27;45369;-68
2024/01/03 02:15:16;;;;;;;0.88;0.88;;;17.40;50.60;;;;;;5168196;27;45387;-65
2024/01/03 02:17:43;;;;;;;1.55;1.05;;;17.40;50.70;;;;;;5168361;27;45312;-66
2024/01/03 02:20:12;;;;;;;1.67;1.20;;;17.40;50.70;;;;;;5171930;27;45284;-67
2024/01/03 02:22:40;;;;;;;1.00;1.00;;;17.40;50.70;;;;;;5164692;27;45477;-66
2024/01/03 02:25:10;;;;;;;1.75;1.40;;;17.40;50.70;;;;;;5147830;27;45307;-65
2024/01/03 02:27:37;;;;;;;0.90;0.90;;;17.40;50.70;;;;;;5150701;27;45326;-66
2024/01/03 02:30:05;;;;;;;1.13;0.90;;;17.40;50.80;;;;;;5150388;27;45397;-65
2024/01/03 02:32:32;;;;;;;1.17;1.08;;;17.30;50.70;;;;;;5150676;27;45524;-66
2024/01/03 02:34:59;;;;;;;0.80;0.80;;;17.30;50.70;;;;;;5150437;27;45263;-66
2024/01/03 02:37:26;;;;;;;1.15;1.05;;;17.30;50.80;;;;;;5150241;27;45279;-65
2024/01/03 02:39:54;;;;;;;0.77;0.77;;;17.30;50.80;;;;;;5155701;27;45572;-65
2024/01/03 02:42:21;;;;;;;1.60;0.90;;;17.30;50.80;;;;;;5171504;27;45439;-65
2024/01/03 02:44:48;;;;;;;1.02;1.00;;;17.30;50.70;;;;;;5170544;27;46382;-66
2024/01/03 02:47:15;;;;;;;1.40;0.90;;;17.30;50.70;;;;;;5170975;27;45276;-65
2024/01/03 02:49:41;;;;;;;0.95;0.95;;;17.30;50.70;;;;;;5171377;27;45647;-65
2024/01/03 02:52:08;;;;;;;1.05;0.95;;;17.30;50.80;;;;;;5171430;27;45479;-65
2024/01/03 02:54:35;;;;;;;0.80;0.80;;;17.30;50.80;;;;;;5171113;27;45417;-65
2024/01/03 02:57:04;;;;;;;1.17;1.08;;;17.30;50.80;;;;;;5170956;27;45313;-65
2024/01/03 02:59:31;;;;;;;0.80;0.80;;;17.30;50.80;;;;;;5171304;27;45309;-65
2024/01/03 03:01:58;;;;;;;0.80;0.80;;;17.30;50.80;;;;;;5171376;27;45370;-66
2024/01/03 03:04:25;;;;;;;0.95;0.90;;;17.20;50.70;;;;;;5170815;27;47344;-65
2024/01/03 03:06:52;;;;;;;0.80;0.80;;;17.20;50.80;;;;;;5171050;27;45327;-65
2024/01/03 03:09:19;;;;;;;1.00;0.90;;;17.20;50.80;;;;;;5171052;27;45275;-66
2024/01/03 03:11:46;;;;;;;0.52;0.52;;;17.20;50.80;;;;;;5171145;27;45221;-65
2024/01/03 03:14:15;;;;;;;0.70;0.70;;;17.20;50.80;;;;;;5170907;27;47601;-66
2024/01/03 03:16:42;;;;;;;1.38;0.88;;;17.20;50.80;;;;;;5170775;27;45460;-66
2024/01/03 03:19:08;;;;;;;0.60;0.60;;;17.20;50.90;;;;;;5170900;27;45289;-65
2024/01/03 03:21:34;;;;;;;0.85;0.82;;;17.20;50.90;;;;;;5168167;27;45302;-65
2024/01/03 03:24:02;;;;;;;0.60;0.60;;;17.20;50.90;;;;;;5170646;27;46338;-66
2024/01/03 03:26:28;;;;;;;0.85;0.85;;;17.20;50.90;;;;;;5170292;27;45379;-66
2024/01/03 03:28:55;;;;;;;0.68;0.68;;;17.20;50.90;;;;;;5169885;27;45374;-65
2024/01/03 03:31:23;;;;;;;0.90;0.77;;;17.20;50.90;;;;;;5169849;27;45349;-65
2024/01/03 03:33:50;;;;;;;0.55;0.55;;;17.20;50.90;;;;;;5170212;27;45379;-65
2024/01/03 03:36:19;;;;;;;0.80;0.80;;;17.20;50.90;;;;;;5170320;27;45513;-66
2024/01/03 03:38:46;;;;;;;0.68;0.68;;;17.20;50.80;;;;;;5170536;27;45366;-65
2024/01/03 03:41:13;;;;;;;0.60;0.60;;;17.20;50.90;;;;;;5170035;27;45578;-65
2024/01/03 03:43:40;;;;;;;0.82;0.80;;;17.20;50.80;;;;;;5170138;27;46396;-65
2024/01/03 03:46:07;;;;;;;0.90;0.90;;;17.10;50.80;;;;;;5170109;27;45326;-65
2024/01/03 03:48:35;;;;;;;0.63;0.63;;;17.10;50.90;;;;;;5170235;27;45480;-64
2024/01/03 03:51:02;;;;;;;0.85;0.70;;;17.10;50.80;;;;;;5170443;27;45349;-65
2024/01/03 03:53:28;;;;;;;0.50;0.50;;;17.20;51.00;;;;;;5169979;27;46401;-65
2024/01/03 03:55:55;;;;;;;0.70;0.70;;;17.10;51.50;;;;;;5170118;27;45598;-65
2024/01/03 03:58:22;;;;;;;0.70;0.60;;;17.10;51.00;;;;;;5170273;27;45526;-64
2024/01/03 04:00:49;;;;;;;0.55;0.43;;;17.10;51.00;;;;;;5170133;27;45502;-65
2024/01/03 04:03:16;;;;;;;0.60;0.60;;;17.10;51.20;;;;;;5169852;27;46642;-64
2024/01/03 04:05:44;;;;;;;0.60;0.60;;;17.10;51.10;;;;;;5169760;27;45195;-65
2024/01/03 04:08:11;;;;;;;0.65;0.65;;;17.10;51.20;;;;;;5167087;27;45317;-64
2024/01/03 04:10:38;;;;;;;0.75;0.60;;;17.10;51.10;;;;;;5169833;27;45359;-63
2024/01/03 04:13:05;;;;;;;0.80;0.80;;;17.10;51.00;;;;;;5169437;27;46758;-65
2024/01/03 04:15:32;;;;;;;0.60;0.60;;;17.20;50.90;;;;;;5169688;27;45384;-65
2024/01/03 04:17:59;;;;;;;0.73;0.60;;;17.20;50.80;;;;;;5169896;27;45316;-65
2024/01/03 04:20:25;;;;;;;0.52;0.52;;;17.30;50.70;;;;;;5170027;27;45402;-65
2024/01/03 04:22:54;;;;;;;0.60;0.60;;;17.40;50.60;;;;;;5169398;27;45607;-65
2024/01/03 04:25:21;;;;;;;0.63;0.60;;;17.50;50.30;;;;;;5169638;27;45387;-65
2024/01/03 04:27:47;;;;;;;0.50;0.50;;;17.60;50.10;;;;;;5169622;27;45364;-65
2024/01/03 04:30:14;;;;;;;0.45;0.40;;;17.70;49.90;;;;;;5170434;27;45375;-65
2024/01/03 04:32:41;;;;;;;0.70;0.70;;;17.80;49.70;;;;;;5169552;27;46249;-65
2024/01/03 04:35:09;;;;;;;0.50;0.50;;;17.90;49.60;;;;;;5169519;27;45242;-65
2024/01/03 04:37:36;;;;;;;0.63;0.63;;;17.90;49.70;;;;;;5169523;27;45375;-65
2024/01/03 04:40:04;;;;;;;0.60;0.60;;;18.00;49.30;;;;;;5169723;27;45302;-65
2024/01/03 04:42:31;;;;;;;0.50;0.50;;;18.10;49.10;;;;;;5168662;27;45264;-66
2024/01/03 04:44:58;;;;;;;0.98;0.65;;;18.20;49.00;;;;;;5169082;27;45307;-65
2024/01/03 04:47:25;;;;;;;0.50;0.43;;;18.20;48.80;;;;;;5169663;27;45437;-66
2024/01/03 04:49:52;;;;;;;0.63;0.50;;;18.30;48.80;;;;;;5169423;27;45401;-66
2024/01/03 04:52:19;;;;;;;1.58;0.50;;;18.40;48.70;;;;;;5168985;27;45329;-66
2024/01/03 04:54:45;;;;;;;0.65;0.60;;;18.40;48.50;;;;;;5168580;27;45257;-66
2024/01/03 04:57:14;;;;;;;0.60;0.60;;;18.40;48.40;;;;;;5169327;27;45585;-66
2024/01/03 04:59:41;;;;;;;0.60;0.60;;;18.50;48.40;;;;;;5166747;27;45503;-66
2024/01/03 05:02:07;;;;;;;0.35;0.35;;;18.50;48.30;;;;;;5169025;27;46382;-66
2024/01/03 05:04:34;;;;;;;0.40;0.40;;;18.60;48.30;;;;;;5169285;27;45328;-66
2024/01/03 05:07:01;;;;;;;0.50;0.50;;;18.60;48.20;;;;;;5168888;27;45333;-66
2024/01/03 05:09:30;;;;;;;0.47;0.47;;;18.60;48.10;;;;;;5169110;27;45297;-66
2024/01/03 05:11:56;;;;;;;0.68;0.60;;;18.70;48.60;;;;;;5168151;27;45470;-66
2024/01/03 05:14:25;;;;;;;0.52;0.50;;;18.70;47.90;;;;;;5170138;27;45366;-65
2024/01/03 05:16:51;;;;;;;0.40;0.40;;;18.80;47.90;;;;;;5168716;27;45340;-66
2024/01/03 05:19:18;;;;;;;0.47;0.47;;;18.70;47.80;;;;;;5168889;27;45401;-66
2024/01/03 05:21:45;;;;;;;0.63;0.50;;;18.80;47.80;;;;;;5168437;27;46548;-66
2024/01/03 05:24:12;;;;;;;0.47;0.47;;;18.80;47.80;;;;;;5168508;27;45365;-67
2024/01/03 05:26:39;;;;;;;0.90;0.68;;;18.80;47.70;;;;;;5168558;27;45355;-65
2024/01/03 05:29:06;;;;;;;0.38;0.38;;;18.90;47.70;;;;;;5168882;27;45397;-65
2024/01/03 05:31:34;;;;;;;0.80;0.50;;;18.90;47.70;;;;;;5168293;27;46642;-65
2024/01/03 05:34:01;;;;;;;0.68;0.50;;;18.90;47.60;;;;;;5168484;27;45492;-66
2024/01/03 05:36:33;;;;;;;0.38;0.38;;;18.90;47.70;;;;;;5168683;27;45361;-66
2024/01/03 05:39:00;;;;;;;0.80;0.40;;;18.90;48.30;;;;;;5168728;27;45426;-66
2024/01/03 05:41:27;;;;;;;0.40;0.38;;;19.00;47.70;;;;;;5167619;27;46344;-65
2024/01/03 05:43:54;;;;;;;0.40;0.40;;;19.00;47.70;;;;;;5168340;27;45290;-66
2024/01/03 05:46:21;;;;;;;0.85;0.52;;;19.00;47.60;;;;;;5168320;27;45211;-65
2024/01/03 05:48:49;;;;;;;1.05;0.47;;;19.00;47.50;;;;;;5168733;27;45524;-65
2024/01/03 05:51:16;;;;;;;0.73;0.43;;;19.00;47.50;;;;;;5167959;27;45467;-65
2024/01/03 05:53:47;;;;;;;0.82;0.43;;;19.00;47.50;;;;;;5169761;27;45220;-65
2024/01/03 05:56:14;;;;;;;0.85;0.47;;;19.10;47.50;;;;;;5172209;27;45311;-66
2024/01/03 05:58:42;;;;;;;0.55;0.55;;;19.00;47.40;;;;;;5172082;27;45353;-65
2024/01/03 06:01:09;;;;;;;0.40;0.40;;;19.10;47.50;;;;;;5171667;27;47516;-66
2024/01/03 06:03:36;;;;;;;0.40;0.40;;;19.10;47.50;;;;;;5171665;27;45211;-66
2024/01/03 06:06:04;;;;;;;0.82;0.50;;;19.10;47.40;;;;;;5171580;27;45286;-65
2024/01/03 06:08:31;;;;;;;0.73;0.60;;;19.10;47.40;;;;;;5171853;27;45399;-65
2024/01/03 06:10:58;;;;;;;0.80;0.47;;;19.10;47.40;;;;;;5171414;27;46444;-65
2024/01/03 06:13:25;;;;;;;0.80;0.40;;;19.10;47.40;;;;;;5182110;27;45427;-64
2024/01/03 06:15:52;;;;;;;0.52;0.43;;;19.20;47.40;;;;;;5192711;27;45293;-66
2024/01/03 06:18:18;;;;;;;0.55;0.52;;;19.10;47.30;;;;;;5193084;27;45009;-67
2024/01/03 06:20:45;;;;;;;0.88;0.70;;;19.20;47.30;;;;;;5192528;27;46470;-66
2024/01/03 06:23:13;;;;;;;0.73;0.70;;;19.20;47.30;;;;;;5180514;27;45342;-67
2024/01/03 06:25:40;;;;;;;1.55;0.57;;;19.20;47.20;;;;;;5170870;27;45332;-66
2024/01/03 06:28:07;;;;;;;0.30;0.30;;;19.20;47.20;;;;;;5171412;27;45503;-66
2024/01/03 06:30:35;;;;;;;0.93;0.40;;;19.20;47.20;;;;;;5171472;27;45557;-66
2024/01/03 06:33:02;;;;;;;0.52;0.30;;;19.20;47.20;;;;;;5171276;27;45384;-67
2024/01/03 06:35:30;;;;;;;0.30;0.30;;;19.20;47.20;;;;;;5171447;27;45466;-67
2024/01/03 06:37:57;;;;;;;1.05;0.40;;;19.30;47.20;;;;;;5171437;27;45447;-67
2024/01/03 06:40:25;;;;;;;1.88;0.60;;;19.30;47.20;;;;;;5170997;27;47913;-67
2024/01/03 06:42:52;;;;;;;1.30;0.63;;;19.30;47.10;;;;;;5170958;27;45396;-67
2024/01/03 06:45:19;;;;;;;0.65;0.60;;;19.30;47.10;;;;;;5171051;27;45396;-66
2024/01/03 06:47:46;;;;;;;0.45;0.43;;;19.30;47.10;;;;;;5171085;27;45479;-67
2024/01/03 06:50:13;;;;;;;0.85;0.63;;;19.30;47.10;;;;;;5170881;27;45214;-67
2024/01/03 06:52:40;;;;;;;1.30;0.55;;;19.30;47.70;;;;;;5170989;27;45402;-66
2024/01/03 06:55:08;;;;;;;1.15;0.50;;;19.30;47.70;;;;;;5171082;27;45366;-66
2024/01/03 06:57:36;;;;;;;0.70;0.30;;;19.30;47.00;;;;;;5171311;27;45402;-67
2024/01/03 07:00:03;;;;;;;0.77;0.50;;;19.30;46.90;;;;;;5170835;27;46438;-65
2024/01/03 07:02:30;;;;;;;0.43;0.43;;;19.40;46.90;;;;;;5170845;27;45365;-65
2024/01/03 07:04:57;;;;;;;1.75;0.65;;;19.30;46.90;;;;;;5170378;27;45411;-66
2024/01/03 07:07:24;;;;;;;1.15;0.38;;;19.30;46.90;;;;;;5170533;27;45556;-66
2024/01/03 07:09:51;;;;;;;0.40;0.40;;;19.40;46.90;;;;;;5170438;27;47277;-67
2024/01/03 07:12:18;;;;;;;1.10;0.40;;;19.30;46.90;;;;;;5171084;27;45244;-67
2024/01/03 07:14:47;;;;;;;1.05;0.50;;;19.40;46.90;;;;;;5191706;27;45330;-66
2024/01/03 07:17:15;;;;;;;1.17;0.63;;;19.40;46.90;;;;;;5191731;27;45414;-65
2024/01/03 07:19:42;;;;;;;1.75;0.40;;;19.40;46.90;;;;;;5191274;27;45689;-67
2024/01/03 07:22:08;;;;;;;0.38;0.38;;;19.30;46.80;;;;;;5188805;27;45445;-65
2024/01/03 07:24:36;;;;;;;0.52;0.40;;;19.40;46.90;;;;;;5170400;27;45466;-66
2024/01/03 07:27:03;;;;;;;0.40;0.40;;;19.40;46.90;;;;;;5170743;27;45380;-65
2024/01/03 07:29:30;;;;;;;2.38;0.57;;;19.40;46.90;;;;;;5170365;27;47368;-66
2024/01/03 07:31:58;;;;;;;1.15;0.50;;;19.40;46.80;;;;;;5170374;27;45228;-66
2024/01/03 07:34:26;;;;;;;0.85;0.50;;;19.40;46.80;;;;;;5170227;27;45326;-65
2024/01/03 07:36:53;;;;;;;0.50;0.30;;;19.40;46.80;;;;;;5170133;27;45346;-65
2024/01/03 07:39:20;;;;;;;1.05;0.45;;;19.40;46.80;;;;;;5169584;27;45290;-65
2024/01/03 07:41:47;;;;;;;0.52;0.35;;;19.40;46.80;;;;;;5169613;27;45228;-65
2024/01/03 07:44:14;;;;;;;0.45;0.40;;;19.40;46.70;;;;;;5169928;27;45397;-65
2024/01/03 07:46:40;;;;;;;0.57;0.57;;;19.40;46.80;;;;;;5169861;27;45502;-65
2024/01/03 07:49:10;;;;;;;1.38;0.65;;;19.30;46.70;;;;;;5169574;27;46683;-65
2024/01/03 07:51:38;;;;;;;0.95;0.50;;;19.40;46.80;;;;;;5169591;27;45238;-65
2024/01/03 07:54:07;;;;;;;3.35;0.63;;;19.40;46.70;;;;;;5169582;27;45328;-64
2024/01/03 07:56:33;;;;;;;0.40;0.40;;;19.40;46.70;;;;;;5169782;27;45492;-64
2024/01/03 07:59:00;;;;;;;0.50;0.45;;;19.40;46.70;;;;;;5166751;27;46173;-64
2024/01/03 08:01:27;;;;;;;0.30;0.30;;;19.40;46.70;;;;;;5169617;27;45362;-64
2024/01/03 08:03:55;;;;;;;2.28;0.50;;;19.40;46.60;;;;;;5169595;27;45435;-65
2024/01/03 08:06:23;;;;;;;1.17;0.40;;;19.40;46.60;;;;;;5169576;27;45304;-64
2024/01/03 08:08:50;;;;;;;1.13;0.60;;;19.40;46.60;;;;;;5169430;27;46519;-65
2024/01/03 08:11:17;;;;;;;0.40;0.40;;;19.40;46.60;;;;;;5169168;27;45329;-64
2024/01/03 08:13:43;;;;;;;0.40;0.40;;;19.40;46.60;;;;;;5182794;27;45257;-64
2024/01/03 08:16:11;;;;;;;1.55;0.40;;;19.40;46.60;;;;;;5189421;27;45332;-64
2024/01/03 08:18:39;;;;;;;0.75;0.47;;;19.40;46.60;;;;;;5190141;27;46372;-64
2024/01/03 08:21:06;;;;;;;0.55;0.35;;;19.40;46.50;;;;;;5190505;27;45251;-65
2024/01/03 08:23:34;;;;;;;0.52;0.47;;;19.40;46.60;;;;;;5175445;27;45298;-65
2024/01/03 08:26:01;;;;;;;0.50;0.50;;;19.40;46.60;;;;;;5169206;27;45270;-65
2024/01/03 08:28:28;;;;;;;0.65;0.40;;;19.40;46.60;;;;;;5169029;27;46465;-64
2024/01/03 08:30:54;;;;;;;0.70;0.40;;;19.40;46.50;;;;;;5169230;27;45261;-64
2024/01/03 08:33:21;;;;;;;1.52;0.60;;;19.40;46.50;;;;;;5168604;27;45313;-64
2024/01/03 08:35:48;;;;;;;0.52;0.52;;;19.50;46.80;;;;;;5154691;27;45239;-64
2024/01/03 08:38:15;;;;;;;3.08;0.60;;;19.50;46.70;;;;;;5158524;27;45437;-65
2024/01/03 08:40:44;;;;;;;4.63;1.20;;;19.50;46.30;;;;;;5159841;27;45582;-64
2024/01/03 08:43:10;;;;;;;11.00;3.28;;;19.60;46.30;;;;;;5157687;27;45251;-63
2024/01/03 08:45:37;;;;;;;2.95;1.00;;;19.60;46.30;;;;;;5156479;27;45483;-64
2024/01/03 08:48:06;;;;;;;3.03;1.17;;;19.70;46.10;;;;;;5162653;27;46391;-62
2024/01/03 08:50:33;;;;;;;1.05;0.90;;;19.70;46.10;;;;;;5160467;27;45315;-65
2024/01/03 08:53:00;;;;;;;11.60;1.45;;;19.80;46.10;;;;;;5148022;27;45329;-63
2024/01/03 08:55:27;;;;;;;2.92;1.13;;;19.80;45.80;;;;;;5158037;27;45388;-64
2024/01/03 08:57:56;;;;;;;1.83;1.08;;;19.80;45.80;;;;;;5168460;27;46703;-63
2024/01/03 09:00:24;;;;;;;2.67;0.75;;;19.90;45.60;;;;;;5150227;27;45383;-66
2024/01/03 09:02:52;;;;;;;2.05;0.95;;;19.90;45.60;;;;;;5147285;27;45392;-64
2024/01/03 09:05:20;;;;;;;6.50;1.55;;;19.90;46.30;;;;;;5158717;27;45323;-62
2024/01/03 09:07:47;;;;;;;1.65;0.90;;;20.00;45.50;;;;;;5158627;27;47510;-65
2024/01/03 09:10:14;;;;;;;0.73;0.68;;;20.00;45.50;;;;;;5161149;27;45482;-63
2024/01/03 09:12:41;;;;;;;2.90;0.80;;;20.10;45.40;;;;;;5164134;27;45400;-62
2024/01/03 09:15:10;;;;;;;4.00;1.05;;;20.20;45.20;;;;;;5147981;27;45433;-61
2024/01/03 09:17:40;;;;;;;2.00;1.02;;;20.20;45.10;;;;;;5147189;27;45380;-63
2024/01/03 09:20:08;;;;;;;2.97;1.70;;;20.30;45.00;;;;;;5147296;27;45295;-65
2024/01/03 09:22:35;;;;;;;5.00;1.67;;;20.30;45.00;;;;;;5150942;27;45155;-64
2024/01/03 09:25:02;;;;;;;5.85;1.80;;;20.40;45.10;;;;;;5168468;27;45524;-64
2024/01/03 09:27:29;;;;;;;8.57;2.53;;;20.40;44.90;;;;;;5167716;27;45390;-63
2024/01/03 09:29:56;;;;;;;6.90;2.80;;;20.50;45.00;;;;;;5172065;27;45247;-63
2024/01/03 09:32:24;;;;;;;7.82;2.42;;;20.60;44.70;;;;;;5172077;27;45257;-62
2024/01/03 09:34:51;;;;;;;6.00;2.33;;;20.60;45.10;;;;;;5171919;27;45321;-63
2024/01/03 09:37:18;;;;;;;5.13;2.13;;;20.60;44.70;;;;;;5171427;27;46397;-63
2024/01/03 09:39:44;;;;;;;6.00;2.28;;;20.60;44.60;;;;;;5171489;27;45411;-63
2024/01/03 09:42:11;;;;;;;4.80;2.08;;;20.50;44.70;;;;;;5171993;27;45272;-64
2024/01/03 09:44:38;;;;;;;4.72;2.40;;;20.40;44.90;;;;;;5171980;27;45346;-64
2024/01/03 09:47:07;;;;;;;6.00;2.08;;;20.30;45.00;;;;;;5171530;27;45355;-64
2024/01/03 09:49:35;;;;;;;4.30;2.20;;;20.20;45.10;;;;;;5171743;27;45291;-64
2024/01/03 09:52:02;;;;;;;4.50;2.03;;;20.20;45.20;;;;;;5171708;27;45381;-63
2024/01/03 09:54:33;;;;;;;4.63;2.00;;;20.10;45.30;;;;;;5171918;27;45406;-64
2024/01/03 09:57:00;;;;;;;3.88;2.25;;;20.10;45.50;;;;;;5171356;27;45461;-64
2024/01/03 09:59:27;;;;;;;4.65;2.08;;;20.00;45.50;;;;;;5170893;27;45385;-64
2024/01/03 10:01:58;;;;;;;5.53;1.73;;;20.00;45.60;;;;;;5171333;27;45184;-65
2024/01/03 10:04:25;;;;;;;5.18;2.00;;;19.90;45.80;;;;;;5171539;27;45347;-65
2024/01/03 10:06:53;;;;;;;3.35;1.65;;;19.90;45.90;;;;;;5171180;27;45314;-66
2024/01/03 10:09:20;;;;;;;4.40;1.73;;;19.90;45.90;;;;;;5171367;27;45619;-64
2024/01/03 10:11:51;;;;;;;5.47;1.77;;;19.90;46.00;;;;;;5171479;27;45228;-66
2024/01/03 10:14:18;;;;;;;4.15;1.73;;;19.80;46.00;;;;;;5167918;27;46770;-64
2024/01/03 10:16:45;;;;;;;5.03;2.33;;;19.80;46.10;;;;;;5159817;27;45450;-65
2024/01/03 10:19:13;;;;;;;4.65;2.95;;;19.80;46.20;;;;;;5162333;27;45327;-65
2024/01/03 10:21:46;;;;;;;6.68;3.03;;;19.80;46.40;;;;;;5171529;27;45441;-66
2024/01/03 10:24:14;;;;;;;5.38;3.20;;;19.80;46.50;;;;;;5171520;27;45428;-65
2024/01/03 10:26:41;;;;;;;6.07;2.85;;;19.80;46.50;;;;;;5171431;27;47310;-65
2024/01/03 10:29:11;;;;;;;8.45;2.80;;;19.80;46.60;;;;;;5171460;27;45250;-66
2024/01/03 10:31:38;;;;;;;5.18;2.78;;;19.80;46.70;;;;;;5169363;27;45283;-64
2024/01/03 10:34:05;;;;;;;5.00;3.28;;;19.70;46.90;;;;;;5171555;27;45297;-65
2024/01/03 10:36:34;;;;;;;6.10;2.80;;;19.70;47.00;;;;;;5171015;27;45225;-65
2024/01/03 10:39:01;;;;;;;4.70;2.67;;;19.70;47.10;;;;;;5168299;27;45372;-66
2024/01/03 10:41:30;;;;;;;6.03;2.47;;;19.70;47.30;;;;;;5149662;27;45374;-65
2024/01/03 10:43:57;;;;;;;5.68;2.88;;;19.70;47.30;;;;;;5149949;27;45313;-65
2024/01/03 10:46:24;;;;;;;4.28;2.88;;;19.70;47.50;;;;;;5151387;27;46396;-65
2024/01/03 10:48:51;;;;;;;6.30;2.58;;;19.60;47.50;;;;;;5158940;27;45328;-65
2024/01/03 10:51:18;;;;;;;5.47;2.45;;;19.60;47.60;;;;;;5158923;27;45331;-65
2024/01/03 10:53:44;;;;;;;2.85;2.47;;;19.60;47.70;;;;;;5159979;27;45475;-65
2024/01/03 10:56:11;;;;;;;7.43;2.55;;;19.50;47.80;;;;;;5168965;27;46308;-64
2024/01/03 10:58:40;;;;;;;4.05;2.30;;;19.60;47.90;;;;;;5160228;27;45349;-67
2024/01/03 11:01:16;;;;;;;6.38;2.50;;;19.60;47.90;;;;;;5150513;27;45375;-62
2024/01/03 11:03:46;;;;;;;4.47;1.70;;;19.60;47.60;;;;;;5149820;27;45462;-64
2024/01/03 11:06:18;;;;;;;4.05;2.10;;;19.60;47.50;;;;;;5149090;27;46206;-67
2024/01/03 11:08:51;;;;;;;4.70;2.30;;;19.60;47.50;;;;;;5149449;27;45350;-65
2024/01/03 11:11:31;;;;;;;2.33;1.83;;;19.60;47.40;;;;;;5150453;27;45444;-65
2024/01/03 11:13:59;;;;;;;1.83;1.38;;;19.70;47.30;;;;;;5164707;27;45531;-64
2024/01/03 11:16:36;;;;;;;3.53;2.03;;;19.60;47.20;;;;;;5170296;27;45387;-64
2024/01/03 11:19:04;;;;;;;3.63;1.75;;;19.60;47.10;;;;;;5170385;27;45369;-63
2024/01/03 11:21:54;;;;;;;3.58;1.77;;;19.70;47.10;;;;;;5169993;27;45491;-63
2024/01/03 11:24:55;;;;;;;3.00;1.50;;;19.70;47.10;;;;;;5149495;27;45642;-63
2024/01/03 11:27:24;;;;;;;2.35;1.20;;;19.70;47.00;;;;;;5148786;27;46668;-62
2024/01/03 11:29:55;;;;;;;3.05;1.33;;;19.70;46.90;;;;;;5157786;27;45463;-62
2024/01/03 11:32:30;;;;;;;2.22;1.40;;;19.70;46.80;;;;;;5170040;27;45292;-63
2024/01/03 11:34:57;;;;;;;2.17;1.50;;;19.80;46.80;;;;;;5170061;27;45344;-62
2024/01/03 11:37:35;;;;;;;2.53;1.65;;;19.80;46.80;;;;;;5169524;27;45294;-63
2024/01/03 11:40:03;;;;;;;1.45;1.35;;;19.80;46.70;;;;;;5163145;27;45503;-62
2024/01/03 11:42:30;;;;;;;1.27;1.02;;;19.80;46.70;;;;;;5149572;27;45363;-62
2024/01/03 11:45:05;;;;;;;3.30;1.20;;;19.80;46.70;;;;;;5148813;27;45268;-63
2024/01/03 11:47:33;;;;;;;1.95;0.93;;;19.80;46.70;;;;;;5156579;27;45173;-62
2024/01/03 11:50:01;;;;;;;2.50;1.35;;;19.80;46.80;;;;;;5162339;27;45413;-64
2024/01/03 11:52:28;;;;;;;1.13;1.02;;;19.80;46.70;;;;;;5161979;27;45293;-62
2024/01/03 11:55:02;;;;;;;3.55;1.50;;;19.80;46.70;;;;;;5169759;27;45310;-63
2024/01/03 11:57:30;;;;;;;2.25;1.30;;;19.90;46.70;;;;;;5169009;27;46366;-63
2024/01/03 12:00:01;;;;;;;2.67;1.05;;;19.90;46.60;;;;;;5157515;27;45357;-65
2024/01/03 12:02:28;;;;;;;2.97;1.30;;;20.00;46.60;;;;;;5167958;27;44794;-63
2024/01/03 12:05:02;;;;;;;3.92;1.20;;;20.00;46.60;;;;;;5156111;27;45510;-64
2024/01/03 12:07:29;;;;;;;3.72;1.13;;;20.00;46.70;;;;;;5155038;27;45542;-64
2024/01/03 12:09:57;;;;;;;3.65;1.15;;;20.10;47.00;;;;;;5160334;27;45377;-66
2024/01/03 12:12:24;;;;;;;1.98;0.70;;;20.20;47.10;;;;;;5158455;27;45495;-64
2024/01/03 12:14:52;;;;;;;2.17;1.00;;;20.20;47.10;;;;;;5160253;27;45398;-67
2024/01/03 12:17:26;;;;;;;1.45;0.95;;;20.30;46.90;;;;;;5156172;27;45507;-66
2024/01/03 12:19:53;;;;;;;1.65;1.23;;;20.40;47.00;;;;;;5160080;27;45289;-62
2024/01/03 12:22:21;;;;;;;2.72;1.30;;;20.40;47.00;;;;;;5162106;27;45463;-62
2024/01/03 12:24:48;;;;;;;2.97;1.20;;;20.40;46.80;;;;;;5169089;27;45260;-63
2024/01/03 12:27:20;;;;;;;2.70;1.00;;;20.50;46.90;;;;;;5168779;27;45203;-61
2024/01/03 12:29:47;;;;;;;2.42;0.85;;;20.50;46.40;;;;;;5166388;27;45716;-62
2024/01/03 12:32:16;;;;;;;6.78;0.93;;;20.40;46.00;;;;;;5168385;27;45274;-64
2024/01/03 12:34:44;;;;;;;2.25;1.00;;;20.40;46.30;;;;;;5169120;27;45426;-63
2024/01/03 12:37:11;;;;;;;2.17;0.90;;;20.40;46.30;;;;;;5168784;27;46344;-62
2024/01/03 12:39:38;;;;;;;1.67;1.40;;;20.50;46.30;;;;;;5167738;27;45334;-62
2024/01/03 12:42:07;;;;;;;2.17;0.80;;;20.50;46.30;;;;;;5156684;27;45309;-63
2024/01/03 12:44:33;;;;;;;1.38;0.70;;;20.50;46.00;;;;;;5147911;27;45318;-68
2024/01/03 12:47:00;;;;;;;3.60;1.23;;;20.50;46.20;;;;;;5153618;27;46857;-63
2024/01/03 12:49:27;;;;;;;6.95;1.13;;;20.40;46.10;;;;;;5168498;27;45239;-62
2024/01/03 12:51:56;;;;;;;1.83;1.00;;;20.50;46.40;;;;;;5168663;27;45255;-63